Time;durP1;ratioP1;P1;durP2;ratioP2;P2;SDS_P1;SDS_P2;PMS_P1;PMS_P2;Temp;Humidity;BMP_temperature;BMP_pressure;BME280_temperature;BME280_humidity;BME280_pressure;Samples;Min_cycle;Max_cycle;Signal;HPM_P1;HPM_P2
2024/03/14 00:00:33;;;;;;;5.55;2.65;;;11.10;91.50;;;;;;5097017;28;20702;-66
2024/03/14 00:03:01;;;;;;;3.90;2.40;;;11.00;91.50;;;;;;5097595;28;20543;-66
2024/03/14 00:05:28;;;;;;;4.13;2.40;;;11.10;91.50;;;;;;5097318;28;20192;-66
2024/03/14 00:07:57;;;;;;;5.80;2.47;;;11.00;91.50;;;;;;5097325;28;20442;-67
2024/03/14 00:10:25;;;;;;;4.07;2.60;;;11.00;91.40;;;;;;5097395;28;20189;-66
2024/03/14 00:12:52;;;;;;;2.95;1.90;;;11.00;91.40;;;;;;5096070;28;20466;-66
2024/03/14 00:15:20;;;;;;;4.05;2.45;;;10.90;91.50;;;;;;5096796;28;20276;-66
2024/03/14 00:17:47;;;;;;;3.50;2.15;;;10.90;91.20;;;;;;5097078;28;20204;-66
2024/03/14 00:20:14;;;;;;;4.73;1.80;;;10.90;91.10;;;;;;5096430;28;20224;-66
2024/03/14 00:22:41;;;;;;;3.93;2.07;;;10.80;91.30;;;;;;5096892;28;20434;-66
2024/03/14 00:25:09;;;;;;;3.78;2.15;;;10.80;91.40;;;;;;5096945;28;20431;-66
2024/03/14 00:27:43;;;;;;;3.50;2.33;;;10.80;91.40;;;;;;5096758;28;20231;-66
2024/03/14 00:30:11;;;;;;;3.70;2.72;;;10.80;91.30;;;;;;5097340;28;20181;-66
2024/03/14 00:32:38;;;;;;;3.03;2.33;;;10.70;91.20;;;;;;5096517;28;20658;-66
2024/03/14 00:35:08;;;;;;;3.28;2.45;;;10.80;91.00;;;;;;5096712;28;20192;-66
2024/03/14 00:37:36;;;;;;;3.03;2.08;;;10.80;90.90;;;;;;5096847;28;20188;-66
2024/03/14 00:40:08;;;;;;;3.25;2.45;;;10.70;90.90;;;;;;5096857;28;20188;-66
2024/03/14 00:42:35;;;;;;;3.37;2.20;;;10.70;90.80;;;;;;5097274;28;20580;-66
2024/03/14 00:45:03;;;;;;;3.25;2.05;;;10.70;90.90;;;;;;5096554;28;20430;-66
2024/03/14 00:47:30;;;;;;;3.47;2.50;;;10.70;91.00;;;;;;5096619;28;20188;-67
2024/03/14 00:49:57;;;;;;;3.10;2.13;;;10.60;90.80;;;;;;5096260;28;20584;-66
2024/03/14 00:52:26;;;;;;;3.20;2.05;;;10.60;90.80;;;;;;5095619;28;20497;-66
2024/03/14 00:54:53;;;;;;;5.72;2.28;;;10.60;90.80;;;;;;5096597;28;20180;-66
2024/03/14 00:57:20;;;;;;;2.88;2.15;;;10.50;90.80;;;;;;5096123;28;20238;-66
2024/03/14 00:59:47;;;;;;;3.30;1.80;;;10.50;90.80;;;;;;5096622;28;20540;-66
2024/03/14 01:02:15;;;;;;;3.67;2.72;;;10.50;90.50;;;;;;5096107;28;20195;-66
2024/03/14 01:04:44;;;;;;;3.03;2.10;;;10.50;90.20;;;;;;5095298;28;20189;-67
2024/03/14 01:07:11;;;;;;;3.67;2.53;;;10.40;90.00;;;;;;5096416;28;20192;-66
2024/03/14 01:09:40;;;;;;;2.67;2.00;;;10.40;90.10;;;;;;5112912;28;20593;-66
2024/03/14 01:12:07;;;;;;;3.22;2.25;;;10.30;90.10;;;;;;5096212;28;20277;-66
2024/03/14 01:14:34;;;;;;;3.40;2.35;;;10.30;90.20;;;;;;5096162;28;20680;-66
2024/03/14 01:17:02;;;;;;;2.85;1.90;;;10.20;90.10;;;;;;5096280;28;20191;-66
2024/03/14 01:19:32;;;;;;;4.22;2.75;;;10.20;90.40;;;;;;5092510;28;20687;-66
2024/03/14 01:21:59;;;;;;;3.47;2.10;;;10.10;90.70;;;;;;5092537;28;20181;-66
2024/03/14 01:24:26;;;;;;;3.50;2.55;;;10.10;91.00;;;;;;5092421;28;20189;-66
2024/03/14 01:26:53;;;;;;;3.67;2.33;;;10.10;91.20;;;;;;5092076;28;20224;-66
2024/03/14 01:29:20;;;;;;;3.38;2.10;;;10.10;91.30;;;;;;5092547;28;20197;-66
2024/03/14 01:31:47;;;;;;;3.58;2.20;;;10.10;91.30;;;;;;5092420;28;20243;-66
2024/03/14 01:34:14;;;;;;;3.25;2.00;;;10.20;91.20;;;;;;5092246;28;20209;-66
2024/03/14 01:36:41;;;;;;;4.63;2.67;;;10.20;91.10;;;;;;5092608;28;20568;-66
2024/03/14 01:39:09;;;;;;;3.35;2.25;;;10.10;91.30;;;;;;5092319;28;20270;-66
2024/03/14 01:41:36;;;;;;;4.93;2.72;;;10.10;91.40;;;;;;5092077;28;20189;-66
2024/03/14 01:44:04;;;;;;;3.05;1.95;;;10.00;91.40;;;;;;5092299;28;20188;-66
2024/03/14 01:46:31;;;;;;;3.72;2.20;;;10.00;91.40;;;;;;5092305;28;20271;-66
2024/03/14 01:48:58;;;;;;;2.90;1.95;;;10.00;91.30;;;;;;5092250;28;20216;-66
2024/03/14 01:51:25;;;;;;;3.47;2.35;;;10.00;90.90;;;;;;5091901;28;20690;-66
2024/03/14 01:53:52;;;;;;;2.85;1.58;;;10.00;90.60;;;;;;5092146;28;20209;-66
2024/03/14 01:56:21;;;;;;;2.97;1.98;;;9.90;91.30;;;;;;5091816;28;20275;-66
2024/03/14 01:58:49;;;;;;;2.97;2.17;;;9.90;91.40;;;;;;5092176;28;20535;-66
2024/03/14 02:01:16;;;;;;;3.70;2.15;;;9.90;91.40;;;;;;5092390;28;20193;-66
2024/03/14 02:03:44;;;;;;;3.75;2.33;;;9.80;91.60;;;;;;5091857;28;20184;-66
2024/03/14 02:06:12;;;;;;;3.38;2.67;;;9.80;92.10;;;;;;5092145;28;20191;-66
2024/03/14 02:08:39;;;;;;;3.25;2.03;;;9.80;91.90;;;;;;5092100;28;20247;-66
2024/03/14 02:11:06;;;;;;;4.20;2.33;;;9.80;92.00;;;;;;5091995;28;20189;-66
2024/03/14 02:13:33;;;;;;;3.53;2.38;;;9.80;91.90;;;;;;5092104;28;20204;-66
2024/03/14 02:16:00;;;;;;;4.60;2.33;;;9.80;91.80;;;;;;5093433;28;20185;-66
2024/03/14 02:18:27;;;;;;;2.80;2.13;;;9.70;91.60;;;;;;5097258;27;20242;-66
2024/03/14 02:20:55;;;;;;;3.88;2.30;;;9.70;91.90;;;;;;5102665;27;20499;-66
2024/03/14 02:23:22;;;;;;;4.32;3.30;;;9.70;92.10;;;;;;5103007;27;20196;-66
2024/03/14 02:25:49;;;;;;;3.70;2.65;;;9.70;92.20;;;;;;5102595;27;20211;-66
2024/03/14 02:28:16;;;;;;;4.53;2.80;;;9.60;92.00;;;;;;5102770;27;20183;-66
2024/03/14 02:30:43;;;;;;;6.00;3.72;;;9.60;91.80;;;;;;5102387;27;20658;-66
2024/03/14 02:33:11;;;;;;;5.22;4.10;;;9.60;91.70;;;;;;5102559;27;20284;-66
2024/03/14 02:35:40;;;;;;;6.00;4.32;;;9.60;91.60;;;;;;5102857;27;20219;-66
2024/03/14 02:38:10;;;;;;;5.90;5.30;;;9.50;91.30;;;;;;5102898;27;20190;-66
2024/03/14 02:40:38;;;;;;;3.63;2.85;;;9.50;91.20;;;;;;5102851;27;20176;-66
2024/03/14 02:43:05;;;;;;;4.13;2.80;;;9.40;90.70;;;;;;5102169;27;20243;-66
2024/03/14 02:45:32;;;;;;;4.65;2.95;;;9.40;90.70;;;;;;5102007;27;20180;-67
2024/03/14 02:47:59;;;;;;;4.28;3.60;;;9.40;90.90;;;;;;5102369;27;20179;-66
2024/03/14 02:50:26;;;;;;;4.57;3.13;;;9.30;91.10;;;;;;5102233;27;20187;-66
2024/03/14 02:52:53;;;;;;;5.45;2.90;;;9.30;91.00;;;;;;5101814;27;20207;-66
2024/03/14 02:55:20;;;;;;;5.13;2.53;;;9.30;91.00;;;;;;5101904;27;20184;-66
2024/03/14 02:57:47;;;;;;;4.68;3.30;;;9.20;90.80;;;;;;5102292;27;20279;-66
2024/03/14 03:00:17;;;;;;;3.20;2.40;;;9.20;90.80;;;;;;5101778;27;20184;-66
2024/03/14 03:02:45;;;;;;;5.80;3.80;;;9.20;90.50;;;;;;5102827;27;20245;-66
2024/03/14 03:05:13;;;;;;;5.50;4.20;;;9.10;90.50;;;;;;5102421;27;20219;-67
2024/03/14 03:07:42;;;;;;;3.92;3.00;;;9.10;90.60;;;;;;5102033;27;20266;-67
2024/03/14 03:10:12;;;;;;;3.70;2.45;;;9.10;90.80;;;;;;5102729;27;20559;-66
2024/03/14 03:12:40;;;;;;;2.60;1.95;;;9.00;90.70;;;;;;5102357;27;20184;-66
2024/03/14 03:15:08;;;;;;;3.35;2.10;;;9.00;90.70;;;;;;5102062;27;20195;-66
2024/03/14 03:17:36;;;;;;;2.80;1.70;;;9.00;90.50;;;;;;5101875;27;20278;-67
2024/03/14 03:20:09;;;;;;;2.97;1.95;;;8.90;90.40;;;;;;5101537;27;20240;-66
2024/03/14 03:23:05;;;;;;;4.28;1.95;;;8.90;90.30;;;;;;5103063;27;20622;-66
2024/03/14 03:25:22;;;;;;;3.72;1.60;;;8.90;90.30;;;;;;5106972;27;20188;-67
2024/03/14 03:27:49;;;;;;;3.40;2.40;;;8.80;90.30;;;;;;5100725;27;20186;-66
2024/03/14 03:30:15;;;;;;;2.40;1.50;;;8.80;90.20;;;;;;5101411;27;20486;-66
2024/03/14 03:32:44;;;;;;;3.08;1.90;;;8.70;90.30;;;;;;5101517;27;20184;-66
2024/03/14 03:35:11;;;;;;;2.67;1.60;;;8.70;90.20;;;;;;5101978;27;20183;-66
2024/03/14 03:37:38;;;;;;;2.90;1.65;;;8.70;90.00;;;;;;5101709;27;20563;-66
2024/03/14 03:40:13;;;;;;;2.40;1.13;;;8.60;89.20;;;;;;5101383;27;20198;-66
2024/03/14 03:42:41;;;;;;;2.80;1.58;;;8.50;88.80;;;;;;5103420;27;20661;-66
2024/03/14 03:45:09;;;;;;;2.30;1.33;;;8.50;88.40;;;;;;5101273;27;20605;-66
2024/03/14 03:47:37;;;;;;;2.45;1.42;;;8.40;88.80;;;;;;5101692;27;20191;-66
2024/03/14 03:50:03;;;;;;;2.40;1.35;;;8.40;88.90;;;;;;5101206;27;20274;-66
2024/03/14 03:52:31;;;;;;;3.10;1.70;;;8.40;88.80;;;;;;5100871;27;20270;-66
2024/03/14 03:54:58;;;;;;;2.22;1.15;;;8.30;88.40;;;;;;5101272;27;20271;-67
2024/03/14 03:57:25;;;;;;;12.63;1.67;;;8.30;87.80;;;;;;5101003;27;20590;-67
2024/03/14 03:59:51;;;;;;;6.07;1.98;;;8.30;86.80;;;;;;5100772;27;20190;-66
2024/03/14 04:02:19;;;;;;;2.83;1.45;;;8.20;85.90;;;;;;5100385;27;20244;-66
2024/03/14 04:04:45;;;;;;;10.13;1.70;;;8.20;85.20;;;;;;5100682;27;20195;-66
2024/03/14 04:07:14;;;;;;;7.38;1.80;;;8.10;83.30;;;;;;5100647;27;20240;-66
2024/03/14 04:09:44;;;;;;;12.98;1.98;;;7.90;82.60;;;;;;5101807;27;20208;-66
2024/03/14 04:12:12;;;;;;;7.28;1.77;;;7.80;84.20;;;;;;5101621;27;20225;-66
2024/03/14 04:14:40;;;;;;;2.28;1.25;;;7.80;85.70;;;;;;5100613;27;20222;-66
2024/03/14 04:17:08;;;;;;;2.70;1.50;;;7.80;86.70;;;;;;5101007;27;20315;-66
2024/03/14 04:19:35;;;;;;;3.45;1.85;;;7.70;88.20;;;;;;5100213;27;20219;-66
2024/03/14 04:22:04;;;;;;;3.28;2.55;;;7.70;89.40;;;;;;5100773;27;20198;-66
2024/03/14 04:24:32;;;;;;;5.05;2.60;;;7.70;90.10;;;;;;5100986;27;20198;-66
2024/03/14 04:26:59;;;;;;;3.63;2.00;;;7.70;90.00;;;;;;5100435;27;20187;-66
2024/03/14 04:29:27;;;;;;;6.47;2.95;;;7.70;90.20;;;;;;5100209;27;20183;-66
2024/03/14 04:31:54;;;;;;;23.75;6.93;;;7.80;90.50;;;;;;5100271;27;20180;-67
2024/03/14 04:34:23;;;;;;;45.97;10.75;;;7.80;90.50;;;;;;5100295;27;20287;-66
2024/03/14 04:36:51;;;;;;;24.27;8.57;;;7.70;90.70;;;;;;5117046;27;20647;-66
2024/03/14 04:39:19;;;;;;;11.98;6.03;;;7.60;91.30;;;;;;5100503;27;20252;-66
2024/03/14 04:41:46;;;;;;;21.83;5.03;;;7.60;91.70;;;;;;5100187;27;20645;-66
2024/03/14 04:44:14;;;;;;;8.93;4.20;;;7.60;91.80;;;;;;5100119;27;20187;-66
2024/03/14 04:46:42;;;;;;;7.05;3.80;;;7.60;91.90;;;;;;5099945;27;20188;-66
2024/03/14 04:49:10;;;;;;;5.40;3.40;;;7.60;91.70;;;;;;5100358;27;20214;-66
2024/03/14 04:51:37;;;;;;;5.07;3.25;;;7.60;91.80;;;;;;5100259;27;20216;-66
2024/03/14 04:54:05;;;;;;;3.92;2.55;;;7.50;91.70;;;;;;5100273;27;20203;-66
2024/03/14 04:56:32;;;;;;;7.70;1.70;;;7.50;91.90;;;;;;5099567;27;20191;-66
2024/03/14 04:58:58;;;;;;;2.72;1.63;;;7.50;91.70;;;;;;5099826;27;20187;-66
2024/03/14 05:01:29;;;;;;;3.17;1.58;;;7.40;91.60;;;;;;5099979;27;20187;-66
2024/03/14 05:03:57;;;;;;;3.13;1.85;;;7.40;91.50;;;;;;5100662;27;20219;-66
2024/03/14 05:06:25;;;;;;;3.85;2.22;;;7.40;91.70;;;;;;5099804;27;20190;-66
2024/03/14 05:08:52;;;;;;;2.95;1.90;;;7.40;91.60;;;;;;5099884;27;20190;-66
2024/03/14 05:11:19;;;;;;;4.53;2.50;;;7.30;91.80;;;;;;5100020;27;20191;-66
2024/03/14 05:13:49;;;;;;;2.95;1.65;;;7.30;91.90;;;;;;5099716;27;20208;-66
2024/03/14 05:16:16;;;;;;;3.72;2.00;;;7.40;92.20;;;;;;5100230;27;20183;-66
2024/03/14 05:18:44;;;;;;;3.30;2.03;;;7.40;92.30;;;;;;5099512;27;20582;-66
2024/03/14 05:21:10;;;;;;;3.17;2.08;;;7.40;92.00;;;;;;5099871;27;20172;-66
2024/03/14 05:23:38;;;;;;;4.13;2.35;;;7.40;92.20;;;;;;5099485;27;20191;-66
2024/03/14 05:26:07;;;;;;;3.35;2.20;;;7.40;92.30;;;;;;5099464;28;20190;-66
2024/03/14 05:28:34;;;;;;;4.10;2.08;;;7.40;92.20;;;;;;5099668;28;20244;-66
2024/03/14 05:31:01;;;;;;;3.65;2.00;;;7.50;92.30;;;;;;5099377;28;20187;-66
2024/03/14 05:33:28;;;;;;;3.15;1.95;;;7.50;92.10;;;;;;5099388;28;20264;-66
2024/03/14 05:35:56;;;;;;;2.83;1.80;;;7.50;91.80;;;;;;5099677;28;20195;-66
2024/03/14 05:38:23;;;;;;;3.47;2.20;;;7.50;91.70;;;;;;5099546;28;20232;-67
2024/03/14 05:40:52;;;;;;;6.13;3.92;;;7.50;91.50;;;;;;5099162;28;20222;-67
2024/03/14 05:43:20;;;;;;;4.57;2.85;;;7.50;91.30;;;;;;5099579;28;20183;-66
2024/03/14 05:45:47;;;;;;;3.25;2.33;;;7.50;91.60;;;;;;5099376;28;20219;-66
2024/03/14 05:48:15;;;;;;;3.55;2.78;;;7.50;91.30;;;;;;5098572;28;20183;-66
2024/03/14 05:50:44;;;;;;;5.05;2.70;;;7.50;91.10;;;;;;5100181;27;20187;-66
2024/03/14 05:53:11;;;;;;;4.05;3.08;;;7.50;91.00;;;;;;5103207;27;20259;-66
2024/03/14 05:55:38;;;;;;;4.60;2.80;;;7.50;91.20;;;;;;5103075;27;20188;-66
2024/03/14 05:58:06;;;;;;;5.13;2.95;;;7.50;91.20;;;;;;5103181;27;20234;-66
2024/03/14 06:00:33;;;;;;;3.28;2.17;;;7.60;91.40;;;;;;5102967;27;20184;-68
2024/03/14 06:03:01;;;;;;;4.40;2.63;;;7.60;91.20;;;;;;5102982;27;20222;-66
2024/03/14 06:05:30;;;;;;;4.80;3.20;;;7.60;91.10;;;;;;5102697;27;20578;-66
2024/03/14 06:07:57;;;;;;;6.60;4.05;;;7.60;91.10;;;;;;5103532;27;20199;-66
2024/03/14 06:10:24;;;;;;;4.78;3.40;;;7.60;91.60;;;;;;5102702;27;20223;-66
2024/03/14 06:12:52;;;;;;;3.60;2.58;;;7.70;91.20;;;;;;5102228;27;20215;-66
2024/03/14 06:15:19;;;;;;;4.45;3.00;;;7.70;91.60;;;;;;5102577;27;20255;-66
2024/03/14 06:17:50;;;;;;;5.28;2.42;;;7.70;91.90;;;;;;5102164;27;20187;-66
2024/03/14 06:20:18;;;;;;;3.55;2.58;;;7.90;91.90;;;;;;5103679;27;20219;-67
2024/03/14 06:22:45;;;;;;;3.60;2.78;;;7.90;91.80;;;;;;5102786;27;20274;-66
2024/03/14 06:25:12;;;;;;;6.63;3.20;;;7.90;91.70;;;;;;5102458;27;20191;-66
2024/03/14 06:27:41;;;;;;;6.03;3.28;;;8.00;91.90;;;;;;5102108;27;20311;-66
2024/03/14 06:30:11;;;;;;;5.50;3.17;;;8.00;92.10;;;;;;5102510;27;20669;-66
2024/03/14 06:32:38;;;;;;;5.07;2.90;;;8.10;92.10;;;;;;5102917;27;20184;-66
2024/03/14 06:35:06;;;;;;;3.53;2.47;;;8.10;92.20;;;;;;5102103;27;20204;-66
2024/03/14 06:37:33;;;;;;;4.18;2.53;;;8.20;92.20;;;;;;5102529;27;20279;-66
2024/03/14 06:40:01;;;;;;;3.80;2.40;;;8.20;92.20;;;;;;5102327;27;20179;-66
2024/03/14 06:42:28;;;;;;;4.28;2.58;;;8.30;92.30;;;;;;5102334;27;20292;-66
2024/03/14 06:44:55;;;;;;;8.27;3.65;;;8.40;92.50;;;;;;5102304;27;20192;-67
2024/03/14 06:47:22;;;;;;;4.30;3.25;;;8.50;92.40;;;;;;5102163;27;20252;-66
2024/03/14 06:49:49;;;;;;;6.05;3.10;;;8.60;92.50;;;;;;5101672;27;20183;-66
2024/03/14 06:52:16;;;;;;;5.75;3.42;;;8.60;92.50;;;;;;5102115;27;20229;-66
2024/03/14 06:54:43;;;;;;;4.90;3.88;;;8.70;92.60;;;;;;5101903;27;20207;-66
2024/03/14 06:57:10;;;;;;;5.53;3.67;;;8.80;92.60;;;;;;5101836;27;20195;-67
2024/03/14 06:59:38;;;;;;;5.07;3.40;;;8.90;92.50;;;;;;5101779;27;20350;-66
2024/03/14 07:02:07;;;;;;;5.18;3.25;;;9.10;92.30;;;;;;5100890;27;20270;-67
2024/03/14 07:04:34;;;;;;;3.97;2.42;;;9.20;92.30;;;;;;5102346;27;20192;-66
2024/03/14 07:07:02;;;;;;;3.65;2.47;;;9.30;92.20;;;;;;5101903;27;20209;-67
2024/03/14 07:09:30;;;;;;;4.47;2.75;;;9.40;92.10;;;;;;5101863;27;20222;-66
2024/03/14 07:11:57;;;;;;;3.83;2.83;;;9.60;92.30;;;;;;5101529;27;20188;-66
2024/03/14 07:14:24;;;;;;;3.35;1.92;;;9.70;92.10;;;;;;5101204;27;20669;-66
2024/03/14 07:16:51;;;;;;;4.18;1.77;;;9.80;91.30;;;;;;5101601;27;20699;-67
2024/03/14 07:19:21;;;;;;;2.85;1.63;;;9.90;90.90;;;;;;5100967;27;20219;-66
2024/03/14 07:21:49;;;;;;;3.55;2.17;;;10.00;90.30;;;;;;5101871;27;20183;-67
2024/03/14 07:24:17;;;;;;;3.03;2.00;;;10.00;90.10;;;;;;5101594;27;20187;-67
2024/03/14 07:26:44;;;;;;;3.80;2.47;;;10.10;90.20;;;;;;5101133;27;20366;-66
2024/03/14 07:29:13;;;;;;;2.75;1.92;;;10.20;90.20;;;;;;5101174;27;20260;-67
2024/03/14 07:31:42;;;;;;;4.93;1.98;;;10.20;90.10;;;;;;5101300;27;20188;-67
2024/03/14 07:34:10;;;;;;;3.40;2.17;;;10.30;89.70;;;;;;5101194;27;20213;-66
2024/03/14 07:36:38;;;;;;;2.67;1.52;;;10.30;89.00;;;;;;5101210;27;20320;-67
2024/03/14 07:39:09;;;;;;;2.75;1.55;;;10.30;88.70;;;;;;5101367;27;20536;-67
2024/03/14 07:41:37;;;;;;;2.40;1.25;;;10.40;88.80;;;;;;5102158;27;20260;-67
2024/03/14 07:44:08;;;;;;;2.70;1.33;;;10.50;88.90;;;;;;5101197;27;20223;-67
2024/03/14 07:46:35;;;;;;;2.50;1.30;;;10.50;88.90;;;;;;5100630;27;20243;-67
2024/03/14 07:49:02;;;;;;;2.75;1.38;;;10.60;88.10;;;;;;5100538;27;20236;-66
2024/03/14 07:51:29;;;;;;;2.40;1.30;;;10.70;87.00;;;;;;5100431;27;20683;-67
2024/03/14 07:53:58;;;;;;;5.20;3.83;;;10.70;87.20;;;;;;5100540;27;20246;-67
2024/03/14 07:56:29;;;;;;;3.03;1.60;;;10.80;87.60;;;;;;5100734;27;20179;-67
2024/03/14 07:58:56;;;;;;;4.07;1.60;;;10.90;87.70;;;;;;5101967;27;20179;-67
2024/03/14 08:01:27;;;;;;;2.60;1.57;;;11.00;87.60;;;;;;5100591;27;20525;-67
2024/03/14 08:03:57;;;;;;;3.40;2.03;;;11.10;87.30;;;;;;5101668;27;20430;-67
2024/03/14 08:06:24;;;;;;;3.33;1.73;;;11.20;86.70;;;;;;5101471;27;20438;-67
2024/03/14 08:08:51;;;;;;;12.20;7.90;;;11.20;86.60;;;;;;5100164;27;20944;-67
2024/03/14 08:11:21;;;;;;;10.10;6.10;;;11.30;86.90;;;;;;5100337;27;20517;-67
2024/03/14 08:13:50;;;;;;;5.88;5.28;;;11.40;86.90;;;;;;5101137;27;20430;-67
2024/03/14 08:16:19;;;;;;;3.47;3.10;;;11.40;86.90;;;;;;5100417;27;20753;-67
2024/03/14 08:18:46;;;;;;;3.40;2.10;;;11.50;86.60;;;;;;5100835;27;20457;-67
2024/03/14 08:21:16;;;;;;;4.75;2.65;;;11.60;86.50;;;;;;5100398;27;20471;-67
2024/03/14 08:23:43;;;;;;;5.00;2.30;;;11.80;85.80;;;;;;5100160;27;20274;-67
2024/03/14 08:26:10;;;;;;;2.77;1.80;;;11.90;85.30;;;;;;5100043;27;20441;-68
2024/03/14 08:28:38;;;;;;;4.07;2.67;;;12.00;85.10;;;;;;5100114;27;20410;-67
2024/03/14 08:31:06;;;;;;;3.63;2.23;;;12.10;83.30;;;;;;5100235;27;20504;-67
2024/03/14 08:33:34;;;;;;;3.03;2.10;;;12.10;81.90;;;;;;5099988;27;20436;-67
2024/03/14 08:36:02;;;;;;;5.50;2.20;;;12.20;80.80;;;;;;5100090;27;20855;-67
2024/03/14 08:38:30;;;;;;;2.63;1.60;;;12.30;79.50;;;;;;5099976;27;20429;-67
2024/03/14 08:40:58;;;;;;;3.80;2.70;;;12.40;78.60;;;;;;5100114;27;20536;-67
2024/03/14 08:43:25;;;;;;;5.77;2.73;;;12.40;79.30;;;;;;5100108;27;20779;-67
2024/03/14 08:45:52;;;;;;;3.30;1.97;;;12.40;80.00;;;;;;5087852;28;20451;-67
2024/03/14 08:48:21;;;;;;;4.37;2.20;;;12.50;80.90;;;;;;5096225;28;20441;-67
2024/03/14 08:50:48;;;;;;;4.30;2.60;;;12.60;80.10;;;;;;5096332;28;20474;-67
2024/03/14 08:53:15;;;;;;;3.93;1.60;;;12.70;80.90;;;;;;5096016;28;20465;-67
2024/03/14 08:55:52;;;;;;;3.10;1.77;;;12.80;80.10;;;;;;5095942;28;20454;-67
2024/03/14 08:58:19;;;;;;;3.23;2.07;;;12.90;79.80;;;;;;5097149;28;20449;-67
2024/03/14 09:00:46;;;;;;;3.47;1.93;;;13.20;79.80;;;;;;5095981;28;20535;-67
2024/03/14 09:03:15;;;;;;;3.40;1.80;;;13.40;77.30;;;;;;5079408;28;20780;-67
2024/03/14 09:05:42;;;;;;;3.40;2.17;;;13.60;75.60;;;;;;5096205;28;20441;-67
2024/03/14 09:08:09;;;;;;;2.57;1.60;;;13.60;72.50;;;;;;5095873;28;20444;-67
2024/03/14 09:10:36;;;;;;;2.60;1.90;;;13.80;72.50;;;;;;5095524;28;20466;-67
2024/03/14 09:13:04;;;;;;;3.53;1.63;;;14.00;71.30;;;;;;5095782;28;20438;-67
2024/03/14 09:15:31;;;;;;;2.47;1.47;;;14.20;70.90;;;;;;5095381;28;20474;-67
2024/03/14 09:17:59;;;;;;;6.27;1.50;;;14.30;69.40;;;;;;5095868;28;20511;-66
2024/03/14 09:20:28;;;;;;;2.80;1.43;;;14.30;70.30;;;;;;5095477;28;20466;-66
2024/03/14 09:22:55;;;;;;;2.77;1.47;;;14.40;69.60;;;;;;5095808;28;20503;-66
2024/03/14 09:25:22;;;;;;;2.40;1.30;;;14.50;71.60;;;;;;5094457;28;20545;-66
2024/03/14 09:27:49;;;;;;;2.73;1.50;;;14.70;72.60;;;;;;5095590;28;20434;-66
2024/03/14 09:30:17;;;;;;;2.67;1.20;;;14.90;73.10;;;;;;5095333;28;20521;-66
2024/03/14 09:32:45;;;;;;;2.83;1.40;;;15.20;72.30;;;;;;5095643;28;20444;-66
2024/03/14 09:35:14;;;;;;;2.40;1.30;;;15.50;71.30;;;;;;5095419;28;20862;-66
2024/03/14 09:37:43;;;;;;;2.40;1.00;;;15.80;69.40;;;;;;5096071;28;20450;-66
2024/03/14 09:40:13;;;;;;;3.27;1.60;;;16.10;66.20;;;;;;5095251;28;20432;-66
2024/03/14 09:42:40;;;;;;;2.40;1.27;;;16.20;64.50;;;;;;5095379;28;20436;-66
2024/03/14 09:45:07;;;;;;;2.60;1.30;;;16.50;59.60;;;;;;5095414;28;20494;-66
2024/03/14 09:47:34;;;;;;;2.87;1.63;;;16.60;56.80;;;;;;5095488;28;20765;-66
2024/03/14 09:50:01;;;;;;;2.40;1.20;;;16.70;59.00;;;;;;5095413;28;20447;-67
2024/03/14 09:52:28;;;;;;;2.40;1.10;;;17.10;58.50;;;;;;5095052;28;20468;-67
2024/03/14 09:54:56;;;;;;;3.43;1.40;;;17.40;58.00;;;;;;5094950;28;20971;-67
2024/03/14 09:57:23;;;;;;;2.17;0.87;;;17.80;56.90;;;;;;5095407;28;20534;-67
2024/03/14 09:59:53;;;;;;;2.20;0.90;;;18.10;56.80;;;;;;5095046;28;20430;-67
2024/03/14 10:02:21;;;;;;;2.93;1.20;;;18.30;55.80;;;;;;5079438;28;20505;-67
2024/03/14 10:04:49;;;;;;;2.70;1.33;;;18.60;56.20;;;;;;5095654;28;20466;-67
2024/03/14 10:07:16;;;;;;;2.27;1.00;;;18.90;55.10;;;;;;5095338;28;20502;-67
2024/03/14 10:09:46;;;;;;;2.20;1.10;;;19.30;52.70;;;;;;5095501;28;20426;-67
2024/03/14 10:12:17;;;;;;;2.23;1.10;;;19.60;52.70;;;;;;5095734;28;20426;-67
2024/03/14 10:14:44;;;;;;;2.30;0.83;;;20.00;53.80;;;;;;5095746;28;20795;-67
2024/03/14 10:17:12;;;;;;;2.43;0.87;;;20.30;48.50;;;;;;5094941;28;20425;-67
2024/03/14 10:19:40;;;;;;;2.43;0.97;;;20.50;46.60;;;;;;5095105;28;20516;-67
2024/03/14 10:22:07;;;;;;;2.97;0.90;;;20.60;45.50;;;;;;5095303;28;20430;-67
2024/03/14 10:24:34;;;;;;;2.43;1.03;;;20.80;45.20;;;;;;5094840;28;20491;-67
2024/03/14 10:27:05;;;;;;;2.93;0.90;;;21.00;44.30;;;;;;5095083;28;20437;-67
2024/03/14 10:29:33;;;;;;;2.30;0.90;;;21.10;45.00;;;;;;5095738;28;20472;-67
2024/03/14 10:32:00;;;;;;;2.00;0.90;;;21.20;43.50;;;;;;5094807;28;20430;-67
2024/03/14 10:34:27;;;;;;;2.27;0.80;;;21.20;43.40;;;;;;5094992;28;20503;-68
2024/03/14 10:36:54;;;;;;;3.60;1.07;;;20.80;42.00;;;;;;5096125;28;20912;-68
2024/03/14 10:39:22;;;;;;;2.07;0.80;;;20.60;43.00;;;;;;5098346;28;20469;-67
2024/03/14 10:41:49;;;;;;;2.73;0.77;;;20.50;42.80;;;;;;5098285;28;20465;-67
2024/03/14 10:44:18;;;;;;;2.30;0.77;;;20.60;41.60;;;;;;5098617;28;20427;-67
2024/03/14 10:46:47;;;;;;;2.70;0.90;;;20.60;42.70;;;;;;5098456;28;20430;-67
2024/03/14 10:49:16;;;;;;;2.37;0.80;;;20.60;43.70;;;;;;5099306;28;20449;-67
2024/03/14 10:51:43;;;;;;;2.30;0.93;;;20.70;45.20;;;;;;5098661;28;20776;-67
2024/03/14 10:54:12;;;;;;;2.00;0.77;;;20.70;45.40;;;;;;5098413;28;20822;-67
2024/03/14 10:56:39;;;;;;;2.43;0.70;;;20.70;42.80;;;;;;5098454;28;20478;-68
2024/03/14 10:59:06;;;;;;;2.00;0.87;;;20.80;43.10;;;;;;5098282;28;20491;-67
2024/03/14 11:01:35;;;;;;;2.53;0.80;;;21.00;43.20;;;;;;5097260;28;20755;-67
2024/03/14 11:04:03;;;;;;;8.33;0.90;;;21.10;43.00;;;;;;5098062;28;20485;-68
2024/03/14 11:06:30;;;;;;;2.20;1.00;;;21.20;41.80;;;;;;5097867;28;20839;-67
2024/03/14 11:08:57;;;;;;;2.17;0.80;;;21.50;41.30;;;;;;5097773;28;20440;-67
2024/03/14 11:11:27;;;;;;;3.03;1.10;;;21.70;42.30;;;;;;5098176;28;20534;-67
2024/03/14 11:13:59;;;;;;;2.17;0.83;;;22.00;40.80;;;;;;5098213;28;20422;-68
2024/03/14 11:16:27;;;;;;;2.83;1.13;;;22.30;40.70;;;;;;5098011;28;20489;-68
2024/03/14 11:18:55;;;;;;;2.40;0.80;;;22.60;39.50;;;;;;5097623;28;20837;-67
2024/03/14 11:21:23;;;;;;;2.50;0.90;;;22.80;38.80;;;;;;5098084;28;20422;-68
2024/03/14 11:23:51;;;;;;;2.07;0.70;;;23.00;39.60;;;;;;5097747;28;20426;-68
2024/03/14 11:26:18;;;;;;;2.87;0.90;;;23.20;39.10;;;;;;5097788;28;20483;-68
2024/03/14 11:28:45;;;;;;;1.90;0.60;;;23.40;38.00;;;;;;5097715;28;20430;-68
2024/03/14 11:31:13;;;;;;;2.10;0.80;;;23.60;37.80;;;;;;5097629;28;20430;-68
2024/03/14 11:33:45;;;;;;;2.87;2.00;;;23.70;37.80;;;;;;5097701;28;20430;-68
2024/03/14 11:36:14;;;;;;;2.10;0.83;;;23.70;36.90;;;;;;5098188;28;20458;-67
2024/03/14 11:38:44;;;;;;;2.20;0.80;;;23.70;37.50;;;;;;5097256;28;20464;-67
2024/03/14 11:41:13;;;;;;;2.60;0.80;;;23.70;36.70;;;;;;5098038;28;20433;-68
2024/03/14 11:43:44;;;;;;;2.87;0.90;;;23.50;35.50;;;;;;5097776;28;20430;-68
2024/03/14 11:46:14;;;;;;;2.97;1.07;;;23.30;36.00;;;;;;5097743;28;20505;-67
2024/03/14 11:48:42;;;;;;;3.60;0.70;;;23.10;35.00;;;;;;5096650;28;20422;-68
2024/03/14 11:51:11;;;;;;;3.57;1.10;;;22.80;35.80;;;;;;5097173;28;20517;-67
2024/03/14 11:53:39;;;;;;;2.00;0.70;;;22.50;36.90;;;;;;5097255;28;20735;-67
2024/03/14 11:56:06;;;;;;;2.73;0.73;;;22.30;37.80;;;;;;5096885;28;20549;-67
2024/03/14 11:58:33;;;;;;;2.47;0.90;;;22.30;38.70;;;;;;5097134;28;20449;-67
2024/03/14 12:01:00;;;;;;;2.30;0.87;;;22.30;39.70;;;;;;5096962;28;20434;-67
2024/03/14 12:03:27;;;;;;;2.20;0.90;;;22.30;39.60;;;;;;5096689;28;20430;-67
2024/03/14 12:05:55;;;;;;;1.80;0.70;;;22.30;38.50;;;;;;5096665;28;20473;-67
2024/03/14 12:08:22;;;;;;;1.90;0.70;;;22.30;38.00;;;;;;5097020;28;20437;-68
2024/03/14 12:10:53;;;;;;;3.50;0.97;;;22.30;37.60;;;;;;5096772;28;20426;-68
2024/03/14 12:13:23;;;;;;;2.00;0.77;;;22.20;37.40;;;;;;5097383;28;20415;-68
2024/03/14 12:15:58;;;;;;;2.00;0.90;;;22.20;38.00;;;;;;5097149;28;20799;-68
2024/03/14 12:18:26;;;;;;;2.20;1.00;;;22.40;38.40;;;;;;5096390;28;20422;-67
2024/03/14 12:20:53;;;;;;;2.03;0.80;;;22.50;38.80;;;;;;5096555;28;20897;-67
2024/03/14 12:23:22;;;;;;;2.80;1.10;;;22.80;39.40;;;;;;5096205;28;20434;-68
2024/03/14 12:25:50;;;;;;;2.77;1.10;;;23.20;39.30;;;;;;5096557;28;20434;-67
2024/03/14 12:28:17;;;;;;;2.73;0.80;;;23.50;37.60;;;;;;5096730;28;20487;-68
2024/03/14 12:30:45;;;;;;;1.90;0.60;;;23.80;36.70;;;;;;5096642;28;20892;-68
2024/03/14 12:33:12;;;;;;;2.00;0.80;;;24.10;34.50;;;;;;5096622;28;20430;-68
2024/03/14 12:35:40;;;;;;;2.10;0.90;;;24.10;34.80;;;;;;5096526;28;20470;-67
2024/03/14 12:38:07;;;;;;;2.53;0.83;;;24.20;34.20;;;;;;5096335;28;20460;-68
2024/03/14 12:40:34;;;;;;;2.10;0.60;;;24.20;34.30;;;;;;5096389;28;20843;-68
2024/03/14 12:43:01;;;;;;;2.10;0.60;;;24.30;34.20;;;;;;5096526;28;20474;-68
2024/03/14 12:45:31;;;;;;;2.00;0.70;;;24.60;33.00;;;;;;5096052;28;20985;-68
2024/03/14 12:48:00;;;;;;;2.07;0.77;;;24.80;32.10;;;;;;5096111;28;20937;-68
2024/03/14 12:50:28;;;;;;;2.20;0.80;;;25.00;31.80;;;;;;5096576;28;20545;-68
2024/03/14 12:53:05;;;;;;;2.87;0.80;;;25.30;33.50;;;;;;5096298;28;20430;-68